Clarksburg, WV

12:34 PM EST on February 13, 2016 (GMT -0500)
North View | | Change Station
CLOSE
Current Station
Personal Weather Station
Location: Clarksburg, WV
Elevation: 1045 ft
Nearby Weather Stations

Elev 1045 ft 39.30 °N, 80.35 °W | Updated 16 seconds ago

Overcast
Overcast
15.3 °F
Feels Like 15 °F
N
0.0
Wind Variable Wind from WNW
Gusts 0.7 mph

Today
High -- | Low -- °F
--% Chance of Precip.
Yesterday
High -- | Low -- °F
Precip. -- in
Pressure 30.42 in
Visibility 9.0 miles
Clouds Mostly Cloudy 3000 ft
Mostly Cloudy 3700 ft
Overcast 4500 ft
Windchill 15 °F
Dew Point 4 °F
Humidity 60%
Rainfall 0.00 in
Snow Depth Not available.
7:16 AM 5:55 PM
Waxing Crescent, 32% visible
METAR KCKB 131653Z 28010G17KT 9SM BKN030 BKN037 OVC045 M09/M20 A3037 RMK AO2 SNB29E50 SLP301 P0000 T10941200
Pressure 30.42 in
Visibility 9.0 miles
Clouds Mostly Cloudy 3000 ft
Mostly Cloudy 3700 ft
Overcast 4500 ft
Windchill 15 °F
Dew Point 4 °F
Humidity 60%
Rainfall 0.00 in
Snow Depth Not available.
7:16 AM 5:55 PM
Waxing Crescent, 32% visible
METAR KCKB 131653Z 28010G17KT 9SM BKN030 BKN037 OVC045 M09/M20 A3037 RMK AO2 SNB29E50 SLP301 P0000 T10941200

10-Day Weather Forecast

Almanac

Astronomy

Feb. 13, 2016 Rise Set
Actual Time
Civil Twilight
Nautical Twilight
Astronomical Twilight
Moon
Length of Visible Light
Length of Day
Tomorrow will be .
, % of the Moon is Illuminated

Today's Extremes

State Highs State Lows

Community

WunderPhotos

Upload Photos

1,892,622 photos uploaded!

WunderBlog® & News

Nearby

Air Quality

  Air Quality AQ Index Pollutant
Not available.

Snow Depth

Station Depth Elevation

Earthquake Activity

City Distance Mag. Time & Date
Minimum magnitude displayed is 2.5.

Coastal Water Temperatures

Place Temperature

Stations

Nearby Weather Stations

Station Location Temp. Windchill Dew Point Humidity Wind Precip. Elev Updated Type
                   

Watches & Warnings

There are currently no watches in effect.